createdAt,value
2023-05-12T00:00:26.980Z,12.00
2023-05-12T00:02:56.502Z,12.00
2023-05-12T00:05:24.711Z,12.00
2023-05-12T00:07:52.589Z,12.00
2023-05-12T00:10:21.071Z,11.90
2023-05-12T00:12:49.472Z,11.90
2023-05-12T00:15:19.090Z,12.00
2023-05-12T00:17:47.098Z,12.00
2023-05-12T00:20:16.463Z,12.10
2023-05-12T00:22:44.296Z,12.10
2023-05-12T00:25:12.202Z,12.10
2023-05-12T00:27:40.125Z,12.10
2023-05-12T00:30:09.117Z,12.10
2023-05-12T00:32:37.086Z,12.10
2023-05-12T00:35:05.498Z,12.10
2023-05-12T00:37:34.763Z,12.20
2023-05-12T00:40:02.829Z,12.10
2023-05-12T00:42:30.720Z,12.10
2023-05-12T00:44:58.725Z,12.20
2023-05-12T00:47:26.952Z,12.20
2023-05-12T00:49:55.096Z,12.20
2023-05-12T00:52:23.067Z,12.10
2023-05-12T00:54:52.453Z,12.10
2023-05-12T00:57:21.714Z,12.10
2023-05-12T00:59:49.595Z,12.10
2023-05-12T01:02:17.550Z,12.20
2023-05-12T01:04:45.576Z,12.30
2023-05-12T01:07:19.357Z,12.30
2023-05-12T01:09:47.232Z,12.20
2023-05-12T01:12:16.518Z,12.10
2023-05-12T01:14:44.510Z,12.10
2023-05-12T01:17:15.056Z,12.10
2023-05-12T01:19:47.173Z,12.10
2023-05-12T01:22:15.839Z,12.00
2023-05-12T01:24:49.142Z,12.00
2023-05-12T01:27:19.102Z,12.00
2023-05-12T01:29:48.490Z,12.00
2023-05-12T01:32:17.346Z,11.90
2023-05-12T01:34:46.682Z,11.90
2023-05-12T01:37:14.836Z,12.00
2023-05-12T01:39:43.000Z,12.00
2023-05-12T01:42:11.085Z,11.90
2023-05-12T01:44:40.360Z,11.90
2023-05-12T01:47:10.027Z,11.80
2023-05-12T01:49:38.018Z,11.80
2023-05-12T01:52:06.702Z,11.80
2023-05-12T01:54:34.618Z,11.90
2023-05-12T01:57:02.598Z,11.80
2023-05-12T01:59:30.482Z,11.80
2023-05-12T02:01:59.886Z,11.80
2023-05-12T02:04:27.802Z,11.80
2023-05-12T02:06:55.919Z,11.80
2023-05-12T02:09:23.797Z,11.80
2023-05-12T02:11:51.947Z,11.80
2023-05-12T02:14:19.923Z,11.80
2023-05-12T02:16:50.686Z,11.80
2023-05-12T02:19:20.147Z,11.80
2023-05-12T02:21:48.126Z,11.80
2023-05-12T02:24:16.516Z,11.80
2023-05-12T02:26:44.473Z,11.80
2023-05-12T02:29:12.517Z,11.80
2023-05-12T02:31:40.443Z,11.80
2023-05-12T02:34:08.565Z,11.80
2023-05-12T02:36:37.933Z,11.80
2023-05-12T02:39:05.818Z,11.80
2023-05-12T02:41:33.734Z,11.80
2023-05-12T02:44:01.664Z,11.80
2023-05-12T02:46:29.550Z,11.80
2023-05-12T02:48:57.554Z,11.80
2023-05-12T02:51:25.443Z,11.80
2023-05-12T02:53:54.623Z,11.80
2023-05-12T02:56:22.851Z,11.80
2023-05-12T02:58:50.692Z,11.80
2023-05-12T03:01:18.683Z,11.80
2023-05-12T03:03:46.829Z,11.80
2023-05-12T03:06:14.876Z,11.80
2023-05-12T03:08:42.820Z,11.80
2023-05-12T03:11:12.046Z,11.80
2023-05-12T03:13:40.020Z,11.80
2023-05-12T03:16:08.410Z,11.80
2023-05-12T03:18:36.386Z,11.80
2023-05-12T03:21:04.622Z,11.80
2023-05-12T03:23:32.947Z,11.80
2023-05-12T03:26:00.864Z,11.80
2023-05-12T03:28:30.166Z,11.90
2023-05-12T03:30:58.059Z,11.90
2023-05-12T03:33:26.045Z,11.90
2023-05-12T03:35:54.030Z,11.90
2023-05-12T03:38:21.991Z,11.90
2023-05-12T03:40:52.673Z,11.90
2023-05-12T03:43:21.260Z,11.90
2023-05-12T03:45:50.676Z,12.00
2023-05-12T03:48:18.678Z,12.00
2023-05-12T03:50:46.597Z,12.00
2023-05-12T03:53:14.458Z,12.00
2023-05-12T03:55:42.428Z,12.00
2023-05-12T03:58:10.320Z,12.00
2023-05-12T04:00:38.986Z,12.00
2023-05-12T04:03:08.456Z,12.00
2023-05-12T04:05:39.292Z,12.00
2023-05-12T04:08:07.197Z,12.10
2023-05-12T04:10:39.014Z,12.00
2023-05-12T04:13:08.074Z,12.00
2023-05-12T04:15:36.457Z,12.00
2023-05-12T04:18:04.709Z,12.00
2023-05-12T04:20:33.957Z,12.10
2023-05-12T04:23:02.032Z,12.10
2023-05-12T04:25:30.281Z,12.10
2023-05-12T04:27:58.199Z,12.10
2023-05-12T04:30:26.046Z,12.10
2023-05-12T04:32:53.992Z,12.10
2023-05-12T04:35:21.820Z,12.10
2023-05-12T04:37:51.105Z,12.10
2023-05-12T04:40:19.468Z,12.20
2023-05-12T04:42:47.900Z,12.20
2023-05-12T04:45:15.788Z,12.20
2023-05-12T04:47:43.735Z,12.30
2023-05-12T04:50:12.312Z,12.30
2023-05-12T04:52:41.066Z,12.30
2023-05-12T04:55:12.236Z,12.30
2023-05-12T04:57:41.287Z,12.40
2023-05-12T05:00:10.539Z,12.40
2023-05-12T05:02:39.369Z,12.40
2023-05-12T05:05:08.095Z,12.40
2023-05-12T05:07:35.940Z,12.40
2023-05-12T05:10:04.265Z,12.50
2023-05-12T05:12:33.486Z,12.50
2023-05-12T05:15:01.787Z,12.50
2023-05-12T05:17:29.684Z,12.50
2023-05-12T05:19:59.678Z,12.60
2023-05-12T05:22:28.190Z,12.60
2023-05-12T05:24:56.230Z,12.60
2023-05-12T05:27:24.223Z,12.60
2023-05-12T05:29:54.384Z,12.60
2023-05-12T05:32:22.911Z,12.60
2023-05-12T05:34:50.826Z,12.60
2023-05-12T05:37:19.603Z,12.70
2023-05-12T05:39:47.443Z,12.70
2023-05-12T05:42:15.827Z,12.70
2023-05-12T05:44:43.703Z,12.70
2023-05-12T05:47:13.209Z,12.80
2023-05-12T05:49:42.112Z,12.80
2023-05-12T05:52:10.058Z,12.80
2023-05-12T05:54:37.923Z,12.90
2023-05-12T05:57:06.216Z,12.90
2023-05-12T05:59:34.211Z,13.00
2023-05-12T06:02:02.331Z,13.10
2023-05-12T06:04:31.660Z,13.00
2023-05-12T06:06:59.581Z,13.10
2023-05-12T06:09:27.481Z,13.10
2023-05-12T06:11:56.010Z,13.20
2023-05-12T06:14:23.943Z,13.20
2023-05-12T06:16:51.797Z,13.20
2023-05-12T06:19:19.755Z,13.20
2023-05-12T06:21:48.975Z,13.30
2023-05-12T06:24:16.814Z,13.30
2023-05-12T06:26:44.756Z,13.40
2023-05-12T06:29:12.627Z,13.40
2023-05-12T06:31:40.627Z,13.50
2023-05-12T06:34:08.520Z,13.50
2023-05-12T06:36:36.455Z,13.60
2023-05-12T06:39:05.745Z,13.60
2023-05-12T06:41:33.791Z,13.60
2023-05-12T06:44:02.478Z,13.60
2023-05-12T06:46:30.422Z,13.60
2023-05-12T06:49:00.195Z,13.60
2023-05-12T06:51:28.131Z,13.50
2023-05-12T06:53:56.520Z,13.50
2023-05-12T06:56:25.836Z,13.50
2023-05-12T06:58:54.448Z,13.50
2023-05-12T07:01:22.351Z,13.60
2023-05-12T07:03:50.425Z,13.60
2023-05-12T07:06:18.513Z,13.60
2023-05-12T07:08:46.486Z,13.60
2023-05-12T07:11:19.893Z,13.60
2023-05-12T07:13:50.032Z,13.60
2023-05-12T07:16:20.509Z,13.70
2023-05-12T07:18:48.924Z,13.70
2023-05-12T07:21:16.989Z,13.70
2023-05-12T07:23:45.080Z,13.80
2023-05-12T07:26:13.205Z,13.80
2023-05-12T07:28:41.079Z,13.80
2023-05-12T07:31:10.513Z,13.80
2023-05-12T07:33:38.436Z,13.90
2023-05-12T07:36:08.291Z,13.90
2023-05-12T07:38:37.022Z,14.00
2023-05-12T07:41:05.024Z,14.00
2023-05-12T07:43:32.891Z,14.00
2023-05-12T07:46:01.196Z,14.10
2023-05-12T07:48:30.768Z,14.20
2023-05-12T07:50:58.691Z,14.30
2023-05-12T07:53:26.641Z,14.40
2023-05-12T07:55:54.650Z,14.40
2023-05-12T07:58:22.617Z,14.50
2023-05-12T08:00:50.527Z,14.50
2023-05-12T08:03:18.603Z,14.50
2023-05-12T08:05:48.011Z,14.60
2023-05-12T08:08:17.112Z,14.60
2023-05-12T08:10:45.255Z,14.60
2023-05-12T08:13:13.156Z,14.70
2023-05-12T08:15:41.017Z,14.70
2023-05-12T08:18:08.956Z,14.70
2023-05-12T08:20:37.102Z,14.80
2023-05-12T08:23:06.889Z,14.70
2023-05-12T08:25:36.962Z,14.70
2023-05-12T08:28:04.879Z,14.70
2023-05-12T08:30:32.899Z,14.70
2023-05-12T08:33:01.630Z,14.70
2023-05-12T08:35:29.596Z,14.70
2023-05-12T08:37:58.086Z,14.70
2023-05-12T08:40:30.649Z,14.70
2023-05-12T08:43:08.475Z,14.80
2023-05-12T08:45:38.459Z,14.90
2023-05-12T08:48:12.106Z,14.90
2023-05-12T08:50:41.734Z,15.00
2023-05-12T08:53:11.983Z,15.00
2023-05-12T08:55:48.236Z,15.20
2023-05-12T08:58:39.965Z,15.30
2023-05-12T09:01:09.376Z,15.40
2023-05-12T09:03:37.292Z,15.50
2023-05-12T09:06:07.514Z,15.60
2023-05-12T09:08:36.700Z,15.70
2023-05-12T09:11:06.067Z,15.80
2023-05-12T09:13:40.384Z,15.70
2023-05-12T09:16:10.756Z,15.70
2023-05-12T09:18:48.098Z,15.70
2023-05-12T09:21:16.051Z,15.70
2023-05-12T09:23:54.297Z,15.90
2023-05-12T09:26:24.223Z,16.20
2023-05-12T09:28:54.921Z,16.30
2023-05-12T09:31:25.291Z,16.40
2023-05-12T09:33:53.984Z,16.40
2023-05-12T09:36:23.494Z,16.30
2023-05-12T09:39:00.467Z,16.20
2023-05-12T09:41:29.677Z,16.10
2023-05-12T09:43:57.907Z,15.90
2023-05-12T09:46:26.572Z,15.90
2023-05-12T09:48:57.205Z,15.80
2023-05-12T09:51:25.904Z,15.70
2023-05-12T09:53:54.348Z,15.70
2023-05-12T09:56:22.755Z,15.60
2023-05-12T09:58:52.463Z,15.60
2023-05-12T10:01:23.647Z,15.50
2023-05-12T10:03:54.657Z,15.50
2023-05-12T10:06:26.476Z,15.50
2023-05-12T10:08:59.147Z,15.60
2023-05-12T10:11:27.274Z,15.60
2023-05-12T10:13:57.338Z,15.80
2023-05-12T10:16:26.093Z,16.00
2023-05-12T10:18:55.419Z,16.10
2023-05-12T10:21:25.563Z,16.20
2023-05-12T10:23:55.166Z,16.40
2023-05-12T10:26:23.451Z,16.40
2023-05-12T10:28:52.844Z,16.50
2023-05-12T10:31:23.144Z,16.60
2023-05-12T10:33:58.570Z,16.60
2023-05-12T10:36:26.844Z,16.60
2023-05-12T10:38:54.912Z,16.70
2023-05-12T10:41:32.894Z,16.70
2023-05-12T10:44:00.958Z,16.70
2023-05-12T10:46:30.861Z,16.70
2023-05-12T10:49:02.350Z,16.60
2023-05-12T10:51:33.133Z,16.50
2023-05-12T10:54:04.067Z,16.30
2023-05-12T10:56:45.131Z,16.30
2023-05-12T10:59:17.436Z,16.20
2023-05-12T11:02:00.475Z,16.10
2023-05-12T11:04:44.471Z,16.00
2023-05-12T11:07:15.067Z,16.00
2023-05-12T11:12:17.920Z,16.00
2023-05-12T11:14:47.505Z,16.00
2023-05-12T11:17:17.057Z,16.10
2023-05-12T11:19:47.778Z,16.20
2023-05-12T11:22:19.151Z,16.30
2023-05-12T11:24:47.898Z,16.20
2023-05-12T11:27:17.892Z,16.20
2023-05-12T11:29:47.249Z,16.20
2023-05-12T11:32:16.937Z,16.20
2023-05-12T11:34:45.413Z,16.30
2023-05-12T11:37:13.362Z,16.20
2023-05-12T11:39:42.842Z,16.30
2023-05-12T11:42:13.633Z,16.40
2023-05-12T11:44:48.532Z,16.50
2023-05-12T11:47:20.000Z,16.50
2023-05-12T11:49:49.332Z,16.40
2023-05-12T11:52:18.438Z,16.40
2023-05-12T11:54:53.847Z,16.30
2023-05-12T11:57:28.407Z,16.20
2023-05-12T12:00:00.824Z,16.20
2023-05-12T12:02:31.602Z,16.30
2023-05-12T12:05:00.194Z,16.40
2023-05-12T12:07:32.503Z,16.50
2023-05-12T12:10:01.901Z,16.60
2023-05-12T12:12:29.793Z,16.70
2023-05-12T12:15:00.290Z,16.80
2023-05-12T12:17:30.955Z,16.90
2023-05-12T12:20:00.456Z,17.00
2023-05-12T12:22:32.533Z,17.20
2023-05-12T12:25:00.437Z,17.40
2023-05-12T12:27:28.365Z,17.60
2023-05-12T12:29:56.183Z,17.90
2023-05-12T12:32:24.136Z,18.10
2023-05-12T12:34:53.288Z,18.20
2023-05-12T12:37:22.755Z,18.40
2023-05-12T12:39:50.886Z,18.30
2023-05-12T12:42:18.740Z,18.30
2023-05-12T12:44:50.154Z,18.10
2023-05-12T12:47:18.369Z,18.10
2023-05-12T12:49:46.265Z,18.10
2023-05-12T12:52:14.724Z,18.00
2023-05-12T12:54:43.925Z,17.90
2023-05-12T12:57:11.779Z,17.90
2023-05-12T12:59:39.676Z,17.90
2023-05-12T13:02:07.912Z,17.70
2023-05-12T13:04:35.956Z,17.60
2023-05-12T13:07:03.930Z,17.50
2023-05-12T13:09:31.822Z,17.40
2023-05-12T13:12:01.197Z,17.50
2023-05-12T13:14:29.089Z,17.50
2023-05-12T13:16:57.012Z,17.40
2023-05-12T13:19:24.952Z,17.30
2023-05-12T13:21:52.912Z,17.30
2023-05-12T13:24:20.789Z,17.30
2023-05-12T13:26:48.594Z,17.20
2023-05-12T13:29:17.832Z,17.20
2023-05-12T13:31:46.552Z,17.30
2023-05-12T13:34:14.640Z,17.30
2023-05-12T13:36:42.704Z,17.40
2023-05-12T13:39:11.383Z,17.50
2023-05-12T13:41:39.283Z,17.70
2023-05-12T13:44:07.188Z,18.00
2023-05-12T13:46:36.509Z,18.10
2023-05-12T13:49:04.666Z,18.10
2023-05-12T13:51:32.998Z,18.20
2023-05-12T13:54:00.832Z,18.20
2023-05-12T13:56:28.698Z,18.20
2023-05-12T13:58:56.574Z,18.20
2023-05-12T14:01:24.559Z,18.20
2023-05-12T14:03:53.774Z,18.00
2023-05-12T14:06:21.668Z,18.00
2023-05-12T14:08:49.628Z,18.10
2023-05-12T14:11:17.805Z,18.10
2023-05-12T14:13:46.059Z,18.10
2023-05-12T14:16:14.254Z,18.10
2023-05-12T14:18:43.705Z,18.30
2023-05-12T14:21:13.193Z,18.40
2023-05-12T14:23:41.108Z,18.40
2023-05-12T14:26:09.062Z,18.40
2023-05-12T14:28:38.978Z,18.40
2023-05-12T14:31:07.070Z,18.60
2023-05-12T14:33:35.066Z,18.60
2023-05-12T14:36:07.465Z,18.50
2023-05-12T14:38:39.095Z,18.50
2023-05-12T14:41:08.390Z,18.40
2023-05-12T14:43:36.389Z,18.40
2023-05-12T14:46:04.578Z,18.00
2023-05-12T14:48:33.149Z,17.80
2023-05-12T14:51:02.380Z,17.80
2023-05-12T14:53:30.209Z,17.90
2023-05-12T14:55:59.713Z,18.00
2023-05-12T14:58:27.632Z,18.00
2023-05-12T15:00:55.561Z,17.90
2023-05-12T15:03:23.609Z,18.00
2023-05-12T15:08:22.494Z,18.10
2023-05-12T15:10:50.658Z,18.20
2023-05-12T15:13:21.364Z,18.20
2023-05-12T15:15:50.248Z,18.20
2023-05-12T15:18:19.758Z,18.10
2023-05-12T15:20:47.729Z,18.10
2023-05-12T15:23:15.542Z,18.10
2023-05-12T15:25:43.380Z,18.10
2023-05-12T15:28:11.336Z,18.20
2023-05-12T15:30:40.663Z,18.10
2023-05-12T15:33:08.547Z,17.90
2023-05-12T15:35:36.632Z,17.90
2023-05-12T15:38:04.884Z,17.90
2023-05-12T15:40:32.781Z,17.80
2023-05-12T15:43:00.659Z,17.80
2023-05-12T15:45:28.525Z,17.60
2023-05-12T15:47:57.999Z,17.50
2023-05-12T15:50:25.898Z,17.50
2023-05-12T15:52:53.898Z,17.40
2023-05-12T15:55:22.271Z,17.30
2023-05-12T15:57:50.920Z,17.30
2023-05-12T16:00:20.468Z,17.20
2023-05-12T16:02:49.872Z,17.10
2023-05-12T16:05:19.803Z,17.00
2023-05-12T16:07:48.433Z,16.90
2023-05-12T16:10:16.653Z,16.80
2023-05-12T16:12:47.768Z,16.60
2023-05-12T16:15:15.665Z,16.60
2023-05-12T16:17:43.718Z,16.60
2023-05-12T16:20:12.683Z,16.50
2023-05-12T16:22:42.083Z,16.60
2023-05-12T16:25:10.450Z,16.70
2023-05-12T16:27:38.821Z,16.70
2023-05-12T16:30:07.873Z,16.90
2023-05-12T16:32:35.838Z,17.00
2023-05-12T16:35:03.729Z,17.00
2023-05-12T16:37:32.191Z,16.90
2023-05-12T16:40:01.420Z,17.00
2023-05-12T16:42:29.310Z,17.00
2023-05-12T16:44:57.289Z,17.10
2023-05-12T16:47:25.243Z,17.10
2023-05-12T16:49:53.928Z,17.30
2023-05-12T16:52:21.936Z,17.50
2023-05-12T16:54:49.931Z,17.60
2023-05-12T16:57:19.259Z,17.70
2023-05-12T16:59:48.371Z,17.60
2023-05-12T17:02:16.532Z,17.60
2023-05-12T17:04:44.612Z,17.50
2023-05-12T17:07:12.524Z,17.50
2023-05-12T17:09:40.439Z,17.30
2023-05-12T17:12:08.852Z,17.20
2023-05-12T17:14:38.344Z,17.10
2023-05-12T17:17:06.640Z,16.90
2023-05-12T17:19:35.173Z,16.80
2023-05-12T17:22:03.622Z,16.70
2023-05-12T17:24:31.723Z,16.70
2023-05-12T17:27:00.165Z,16.70
2023-05-12T17:29:28.438Z,16.50
2023-05-12T17:31:57.613Z,16.40
2023-05-12T17:34:25.610Z,16.40
2023-05-12T17:36:54.054Z,16.30
2023-05-12T17:39:22.744Z,16.30
2023-05-12T17:41:50.637Z,16.30
2023-05-12T17:44:18.804Z,16.20
2023-05-12T17:46:46.780Z,16.30
2023-05-12T17:49:16.230Z,16.20
2023-05-12T17:51:44.452Z,16.20
2023-05-12T17:54:12.576Z,16.20
2023-05-12T17:56:40.479Z,16.10
2023-05-12T17:59:08.316Z,16.10
2023-05-12T18:01:36.471Z,16.00
2023-05-12T18:04:04.597Z,16.00
2023-05-12T18:06:33.803Z,16.00
2023-05-12T18:09:01.706Z,16.00
2023-05-12T18:11:29.722Z,16.00
2023-05-12T18:13:58.594Z,16.00
2023-05-12T18:16:29.447Z,16.10
2023-05-12T18:18:58.461Z,16.10
2023-05-12T18:21:26.836Z,16.00
2023-05-12T18:23:56.233Z,15.90
2023-05-12T18:26:24.132Z,15.70
2023-05-12T18:28:52.454Z,15.70
2023-05-12T18:31:20.509Z,15.60
2023-05-12T18:33:49.454Z,15.60
2023-05-12T18:36:17.878Z,15.50
2023-05-12T18:38:46.470Z,15.40
2023-05-12T18:41:15.794Z,15.40
2023-05-12T18:43:44.798Z,15.40
2023-05-12T18:46:13.433Z,15.30
2023-05-12T18:48:41.334Z,15.20
2023-05-12T18:51:09.478Z,15.30
2023-05-12T18:53:37.418Z,15.10
2023-05-12T18:56:05.497Z,15.10
2023-05-12T18:58:34.808Z,15.10
2023-05-12T19:01:03.859Z,15.10
2023-05-12T19:03:33.657Z,15.00
2023-05-12T19:06:01.695Z,14.90
2023-05-12T19:08:29.580Z,14.90
2023-05-12T19:10:57.403Z,14.90
2023-05-12T19:13:25.299Z,14.90
2023-05-12T19:15:54.490Z,14.90
2023-05-12T19:18:22.631Z,14.80
2023-05-12T19:20:50.678Z,14.80
2023-05-12T19:23:18.593Z,14.70
2023-05-12T19:25:46.526Z,14.70
2023-05-12T19:28:14.684Z,14.70
2023-05-12T19:30:42.756Z,14.70
2023-05-12T19:33:12.007Z,14.60
2023-05-12T19:35:40.227Z,14.60
2023-05-12T19:38:08.134Z,14.60
2023-05-12T19:40:35.961Z,14.50
2023-05-12T19:43:05.112Z,14.50
2023-05-12T19:45:33.113Z,14.50
2023-05-12T19:48:01.090Z,14.50
2023-05-12T19:50:30.782Z,14.50
2023-05-12T19:52:58.814Z,14.40
2023-05-12T19:55:26.934Z,14.40
2023-05-12T19:57:54.887Z,14.40
2023-05-12T20:00:22.927Z,14.30
2023-05-12T20:02:50.967Z,14.30
2023-05-12T20:05:19.402Z,14.30
2023-05-12T20:07:49.457Z,14.30
2023-05-12T20:10:17.481Z,14.20
2023-05-12T20:12:45.405Z,14.20
2023-05-12T20:15:13.336Z,14.20
2023-05-12T20:17:41.283Z,14.20
2023-05-12T20:20:11.439Z,14.10
2023-05-12T20:22:39.470Z,14.10
2023-05-12T20:25:12.368Z,14.10
2023-05-12T20:27:40.450Z,14.10
2023-05-12T20:30:09.780Z,14.00
2023-05-12T20:32:37.851Z,13.90
2023-05-12T20:35:06.636Z,13.90
2023-05-12T20:37:34.696Z,13.90
2023-05-12T20:40:05.061Z,13.80
2023-05-12T20:42:34.275Z,13.80
2023-05-12T20:45:02.217Z,13.70
2023-05-12T20:47:30.658Z,13.70
2023-05-12T20:50:00.718Z,13.70
2023-05-12T20:52:29.347Z,13.70
2023-05-12T20:54:58.932Z,13.60
2023-05-12T20:57:27.170Z,13.60
2023-05-12T20:59:57.484Z,13.60
2023-05-12T21:02:26.043Z,13.60
2023-05-12T21:04:54.804Z,13.60
2023-05-12T21:07:22.704Z,13.50
2023-05-12T21:09:50.623Z,13.50
2023-05-12T21:12:18.528Z,13.40
2023-05-12T21:14:46.720Z,13.40
2023-05-12T21:17:17.175Z,13.30
2023-05-12T21:19:45.059Z,13.30
2023-05-12T21:22:12.982Z,13.20
2023-05-12T21:24:42.025Z,13.20
2023-05-12T21:27:10.047Z,13.10
2023-05-12T21:29:38.002Z,13.10
2023-05-12T21:32:06.648Z,13.10
2023-05-12T21:34:36.206Z,13.10
2023-05-12T21:37:04.096Z,13.00
2023-05-12T21:39:31.930Z,13.00
2023-05-12T21:41:59.864Z,13.00
2023-05-12T21:44:27.752Z,12.90
2023-05-12T21:46:55.602Z,12.90
2023-05-12T21:49:23.518Z,12.90
2023-05-12T21:51:55.785Z,12.80
2023-05-12T21:54:23.667Z,12.80
2023-05-12T21:56:54.116Z,12.70
2023-05-12T21:59:22.021Z,12.60
2023-05-12T22:01:49.981Z,12.50
2023-05-12T22:04:17.988Z,12.50
2023-05-12T22:06:45.831Z,12.50
2023-05-12T22:09:15.996Z,12.50
2023-05-12T22:11:44.971Z,12.40
2023-05-12T22:14:12.873Z,12.40
2023-05-12T22:16:42.236Z,12.30
2023-05-12T22:19:10.762Z,12.30
2023-05-12T22:21:38.795Z,12.30
2023-05-12T22:24:07.383Z,12.30
2023-05-12T22:26:36.595Z,12.20
2023-05-12T22:29:04.453Z,12.20
2023-05-12T22:31:32.378Z,12.20
2023-05-12T22:34:00.377Z,12.20
2023-05-12T22:36:28.333Z,12.20
2023-05-12T22:38:56.234Z,12.10
2023-05-12T22:41:24.107Z,12.10
2023-05-12T22:43:53.443Z,12.10
2023-05-12T22:46:21.649Z,12.10
2023-05-12T22:48:50.851Z,12.10
2023-05-12T22:51:18.693Z,12.10
2023-05-12T22:53:46.584Z,12.10
2023-05-12T22:56:14.637Z,12.10
2023-05-12T22:58:42.670Z,12.10
2023-05-12T23:01:11.936Z,12.20
2023-05-12T23:03:39.975Z,12.20
2023-05-12T23:06:08.097Z,12.20
2023-05-12T23:08:35.983Z,12.20
2023-05-12T23:11:03.847Z,12.30
2023-05-12T23:13:31.680Z,12.20
2023-05-12T23:15:59.467Z,12.30
2023-05-12T23:18:28.692Z,12.30
2023-05-12T23:20:56.554Z,12.30
2023-05-12T23:23:24.495Z,12.30
2023-05-12T23:25:52.384Z,12.30
2023-05-12T23:28:20.276Z,12.40
2023-05-12T23:30:48.330Z,12.40
2023-05-12T23:33:16.296Z,12.40
2023-05-12T23:35:45.569Z,12.40
2023-05-12T23:38:13.489Z,12.30
2023-05-12T23:40:41.459Z,12.30
2023-05-12T23:43:09.775Z,12.20
2023-05-12T23:45:37.747Z,12.20
2023-05-12T23:48:06.319Z,12.10
2023-05-12T23:50:34.215Z,12.10
2023-05-12T23:53:03.521Z,12.10
2023-05-12T23:55:31.416Z,12.10
2023-05-12T23:57:59.439Z,12.00
